Nearby METAR Reports

 

KDWH - Houston/Dw Hooks, Texas, USA
Distance from station: WNW 3mi, 6km
Updated: 09/20/2021 11:09am
Partly cloudy
Partly cloudy
 Wind from varies
Wind: varies 7 mph , 11 km/h
Temperature: 86°F , 30°C
Heat Index: 95°F , 35°C
Dew Point: 75°F , 24°C
Humidity: 70%
Barometer: 29.93 inHg , 1013.5 hPa
Clouds: Partly cloudy
Visibility: 10 miles , 16 km
Cloud details: Partly cloudy 2400 ft
2021/09/20 16:09 KDWH 201609Z VRB06KT 10SM SCT024 30/24 A2993 RMK AO2 T03000239
KIAH - Houston/Intnl, Texas, USA
Distance from station: ESE 9mi, 14km
Updated: 09/20/2021 10:53am
Partly cloudy
Partly cloudy
 Wind from W
Wind: W 8 mph , 13 km/h
Temperature: 88°F , 31°C
Heat Index: 96°F , 36°C
Dew Point: 73°F , 23°C
Humidity: 62%
Barometer: 29.93 inHg , 1013.5 hPa
Clouds: Partly cloudy
Visibility: 10 miles , 16 km
Cloud details: Partly cloudy 2700 ft
2021/09/20 15:53 KIAH 201553Z 26007KT 10SM SCT027 31/23 A2993 RMK AO2 SLP133 T03060233
 
KCXO - Conroe, Texas, USA
Distance from station: NNE 21mi, 34km
Updated: 09/20/2021 10:53am
Clear
Clear
 Wind from S
Wind: S 7 mph , 11 km/h
Temperature: 86°F , 30°C
Heat Index: 95°F , 35°C
Dew Point: 75°F , 24°C
Humidity: 70%
Barometer: 29.94 inHg , 1013.9 hPa
Clouds: Clear
Visibility: 10 miles , 16 km
2021/09/20 15:53 KCXO 201553Z 19006KT 10SM CLR 30/24 A2994 RMK AO2 SLP134 T03000239
KMCJ - Houston/Univ, Texas, USA
Distance from station: SSE 24mi, 39km
Updated: 09/20/2021 11:35am
Partly cloudy
Partly cloudy
 Wind from WSW
Wind: WSW 10 mph , 17 km/h, Gust: 17 mph , 28 km/h
Temperature: 86°F , 30°C
Heat Index: 93°F , 34°C
Dew Point: 73°F , 23°C
Humidity: 66%
Barometer: 29.92 inHg , 1013.2 hPa
Clouds: Partly cloudy
Visibility: 10 miles , 16 km
Cloud details: Partly cloudy 2800 ft
Partly cloudy 3800 ft
2021/09/20 16:35 KMCJ 201635Z AUTO 24009G15KT 180V270 10SM SCT028 SCT038 30/23 A2992 RMK A01
 
KTME - Houston Exec, Texas, USA
Distance from station: SW 30mi, 48km
Updated: 09/20/2021 11:35am
Mostly cloudy
Mostly cloudy
 Wind from SSW
Wind: SSW 9 mph , 15 km/h
Temperature: 93°F , 34°C
Heat Index: 107°F , 42°C
Dew Point: 77°F , 25°C
Humidity: 59%
Barometer: 29.94 inHg , 1013.9 hPa
Clouds: Mostly cloudy
Visibility: 8 miles , 13 km
Cloud details: Mostly cloudy 2800 ft
2021/09/20 16:35 KTME 201635Z AUTO 20008KT 8SM BKN028 34/25 A2994 RMK AO2
KHOU - Houston/Hobby, Texas, USA
Distance from station: SSE 32mi, 51km
Updated: 09/20/2021 10:53am
Partly cloudy
Partly cloudy
 Wind from WSW
Wind: WSW 9 mph , 15 km/h
Temperature: 88°F , 31°C
Heat Index: 96°F , 36°C
Dew Point: 73°F , 23°C
Humidity: 62%
Barometer: 29.93 inHg , 1013.5 hPa
Clouds: Partly cloudy
Visibility: 10 miles , 16 km
Cloud details: Partly cloudy 2200 ft
2021/09/20 15:53 KHOU 201553Z 24008KT 10SM SCT022 31/23 A2993 RMK AO2 SLP138 T03060233
 
KSGR - Houston/Sugar La, Texas, USA
Distance from station: SSW 32mi, 51km
Updated: 09/20/2021 10:53am
Mostly cloudy
Mostly cloudy
 Wind from WSW
Wind: WSW 12 mph , 19 km/h
Temperature: 90°F , 32°C
Heat Index: 101°F , 38°C
Dew Point: 75°F , 24°C
Humidity: 63%
Barometer: 29.92 inHg , 1013.2 hPa
Clouds: Mostly cloudy
Visibility: 10 miles , 16 km
Cloud details: Partly cloudy 2100 ft
Partly cloudy 2900 ft
Mostly cloudy 3500 ft
2021/09/20 15:53 KSGR 201553Z 24010KT 10SM SCT021 SCT029 BKN035 32/24 A2992 RMK AO2 SLP134 T03170244
K6R3 - Cleveland Muni, Texas, USA
Distance from station: NE 36mi, 58km
Updated: 09/20/2021 11:35am
Partly cloudy
Partly cloudy
 Wind from SW
Wind: SW 6 mph , 9 km/h
Temperature: 88°F , 31°C
Heat Index: 96°F , 36°C
Dew Point: 73°F , 23°C
Humidity: 62%
Barometer: 29.95 inHg , 1014.2 hPa
Clouds: Partly cloudy
Visibility: 10 miles , 16 km
Cloud details: Partly cloudy 2700 ft
2021/09/20 16:35 K6R3 201635Z AUTO 22005KT 10SM SCT027 31/23 A2995 RMK AO2 T03100234
 
KAXH - Houston/Southwst, Texas, USA
Distance from station: S 37mi, 60km
Updated: 09/20/2021 11:35am
Partly cloudy
Partly cloudy
 Wind from WSW
Wind: WSW 3 mph , 6 km/h
Temperature: 90°F , 32°C
Heat Index: 104°F , 40°C
Dew Point: 77°F , 25°C
Humidity: 67%
Barometer: 29.94 inHg , 1013.9 hPa
Clouds: Partly cloudy
Visibility: 10 miles , 16 km
Cloud details: Partly cloudy 3200 ft
Partly cloudy 10000 ft
2021/09/20 16:35 KAXH 201635Z AUTO 24003KT 10SM SCT032 SCT100 32/25 A2994 RMK AO2 T03150252
KEFD - Houston/Ellingto, Texas, USA
Distance from station: SSE 37mi, 60km
Updated: 09/20/2021 10:50am
Partly cloudy
Partly cloudy
 Wind from S
Wind: S 9 mph , 15 km/h
Temperature: 88°F , 31°C
Heat Index: 100°F , 38°C
Dew Point: 77°F , 25°C
Humidity: 70%
Barometer: 29.93 inHg , 1013.5 hPa
Clouds: Partly cloudy
Visibility: 10 miles , 16 km
Cloud details: Partly cloudy 2600 ft
Partly cloudy 3500 ft
2021/09/20 15:50 KEFD 201550Z 17008KT 10SM SCT026 SCT035 31/25 A2993
 
KLVJ - Houston, Texas, USA
Distance from station: SSE 40mi, 64km
Updated: 09/20/2021 10:53am
Mostly cloudy
Mostly cloudy
 Wind from WSW
Wind: WSW 6 mph , 9 km/h
Temperature: 86°F , 30°C
Heat Index: 95°F , 35°C
Dew Point: 75°F , 24°C
Humidity: 70%
Barometer: 29.95 inHg , 1014.2 hPa
Clouds: Mostly cloudy
Visibility: 10 miles , 16 km
Cloud details: Few Clouds 2200 ft
Partly cloudy 3700 ft
Mostly cloudy 4800 ft
2021/09/20 15:53 KLVJ 201553Z AUTO 24005KT 10SM FEW022 SCT037 BKN048 30/24 A2995 RMK AO2 SLP140 T03000244
KUTS - Huntsville, Texas, USA
Distance from station: N 48mi, 78km
Updated: 09/20/2021 11:17am
Few Clouds
Few Clouds
 Wind from varies
Wind: varies 7 mph , 11 km/h
Temperature: 86°F , 30°C
Heat Index: 93°F , 34°C
Dew Point: 73°F , 23°C
Humidity: 66%
Barometer: 29.93 inHg , 1013.5 hPa
Clouds: Few Clouds
Visibility: 10 miles , 16 km
Cloud details: Few Clouds 1900 ft
2021/09/20 16:17 KUTS 201617Z AUTO VRB06KT 10SM FEW019 30/23 A2993 RMK AO2 T03000228